Time;durP1;ratioP1;P1;durP2;ratioP2;P2;SDS_P1;SDS_P2;PMS_P1;PMS_P2;Temp;Humidity;BMP_temperature;BMP_pressure;BME280_temperature;BME280_humidity;BME280_pressure;Samples;Min_cycle;Max_cycle;Signal;HPM_P1;HPM_P2
2022/04/22 00:01:25;;;;;;;;;;;;;;;11.42;75.61;99724.06;4968674;28;19910;-82
2022/04/22 00:03:50;;;;;;;;;;;;;;;11.59;75.01;99728.19;4968652;28;19928;-82
2022/04/22 00:06:16;;;;;;;;;;;;;;;11.49;75.28;99727.44;4969269;28;19918;-81
2022/04/22 00:08:41;;;;;;;;;;;;;;;11.44;75.51;99743.38;4968777;28;19920;-83
2022/04/22 00:13:50;;;;;;;;;;;;;;;11.41;75.40;99746.09;4968508;28;19925;-82
2022/04/22 00:16:17;;;;;;;;;;;;;;;11.45;74.98;99736.34;4968921;28;19918;-82
2022/04/22 00:18:43;;;;;;;;;;;;;;;11.68;73.92;99724.47;4968920;28;20012;-82
2022/04/22 00:21:08;;;;;;;;;;;;;;;11.62;73.96;99723.69;4968662;28;20017;-81
2022/04/22 00:23:34;;;;;;;;;;;;;;;11.65;73.34;99709.56;4966815;28;19918;-82
2022/04/22 00:25:59;;;;;;;;;;;;;;;11.78;72.75;99691.69;4967043;28;20407;-81
2022/04/22 00:28:24;;;;;;;;;;;;;;;11.88;72.79;99681.78;4966883;28;19964;-82
2022/04/22 00:30:50;;;;;;;;;;;;;;;11.64;74.49;99666.41;4968848;28;19918;-82
2022/04/22 00:33:16;;;;;;;;;;;;;;;11.75;74.90;99658.25;4968915;28;20005;-82
2022/04/22 00:35:41;;;;;;;;;;;;;;;11.68;75.24;99656.66;4968409;28;19934;-83
2022/04/22 00:38:07;;;;;;;;;;;;;;;11.64;75.36;99654.97;4968675;28;19972;-82
2022/04/22 00:40:32;;;;;;;;;;;;;;;11.64;75.12;99657.63;4969098;28;19965;-82
2022/04/22 00:42:57;;;;;;;;;;;;;;;11.80;75.18;99656.41;4972648;28;19989;-82
2022/04/22 00:45:23;;;;;;;;;;;;;;;11.86;74.59;99654.53;4972146;28;19917;-82
2022/04/22 00:47:48;;;;;;;;;;;;;;;11.89;75.26;99651.81;4972628;28;20312;-82
2022/04/22 00:50:13;;;;;;;;;;;;;;;11.87;75.25;99649.22;4971995;28;19925;-83
2022/04/22 00:52:39;;;;;;;;;;;;;;;11.90;75.01;99640.38;4972723;28;20004;-81
2022/04/22 00:55:04;;;;;;;;;;;;;;;11.72;75.62;99631.03;4971991;28;19910;-82
2022/04/22 00:57:31;;;;;;;;;;;;;;;11.81;75.49;99634.34;4971992;28;19917;-82
2022/04/22 00:59:57;;;;;;;;;;;;;;;11.70;76.34;99646.06;4972320;28;19968;-82
2022/04/22 01:02:22;;;;;;;;;;;;;;;11.81;75.85;99649.34;4972271;28;19999;-82
2022/04/22 01:10:15;;;;;;;;;;;;;;;11.52;76.64;99640.22;4971674;28;19999;-82
2022/04/22 01:12:41;;;;;;;;;;;;;;;11.51;76.62;99641.16;4971871;28;19921;-82
2022/04/22 01:15:06;;;;;;;;;;;;;;;11.43;76.99;99650.97;4971719;28;19918;-83
2022/04/22 01:17:32;;;;;;;;;;;;;;;11.52;76.57;99645.50;4971838;28;19918;-82
2022/04/22 01:19:57;;;;;;;;;;;;;;;11.42;77.61;99651.88;4971570;28;20017;-82
2022/04/22 01:22:23;;;;;;;;;;;;;;;11.46;77.33;99657.09;4971321;28;20316;-83
2022/04/22 01:24:53;;;;;;;;;;;;;;;11.52;77.02;99652.56;4971853;28;20304;-82
2022/04/22 01:27:19;;;;;;;;;;;;;;;11.56;76.70;99660.41;4971686;28;19925;-82
2022/04/22 01:29:44;;;;;;;;;;;;;;;11.54;76.56;99659.56;4971779;28;19914;-83
2022/04/22 01:32:09;;;;;;;;;;;;;;;11.59;76.81;99656.84;4971610;28;20163;-83
2022/04/22 01:34:35;;;;;;;;;;;;;;;11.62;76.42;99652.38;4971151;28;19914;-82
2022/04/22 01:37:00;;;;;;;;;;;;;;;11.59;76.29;99654.19;4971538;28;19922;-82
2022/04/22 01:39:29;;;;;;;;;;;;;;;11.59;76.55;99662.13;4971354;28;20754;-81
2022/04/22 01:41:55;;;;;;;;;;;;;;;11.67;76.29;99662.84;4971693;28;19914;-82
2022/04/22 01:44:20;;;;;;;;;;;;;;;11.59;76.32;99663.00;4971407;28;19925;-83
2022/04/22 01:46:45;;;;;;;;;;;;;;;11.62;76.56;99662.94;4971213;28;19918;-82
2022/04/22 01:49:11;;;;;;;;;;;;;;;11.44;76.78;99660.66;4970937;28;19917;-83
2022/04/22 01:51:36;;;;;;;;;;;;;;;11.24;78.38;99668.94;4970862;28;20409;-82
2022/04/22 01:54:01;;;;;;;;;;;;;;;11.35;78.43;99674.03;4971099;28;19945;-83
2022/04/22 01:56:27;;;;;;;;;;;;;;;11.24;78.52;99656.59;4970772;28;19914;-82
2022/04/22 01:58:52;;;;;;;;;;;;;;;11.08;79.44;99657.78;4971389;28;19940;-82
2022/04/22 02:01:18;;;;;;;;;;;;;;;11.10;78.65;99651.56;4971184;28;19969;-82
2022/04/22 02:03:43;;;;;;;;;;;;;;;11.18;78.89;99642.66;4971191;28;20307;-82
2022/04/22 02:06:08;;;;;;;;;;;;;;;11.33;78.12;99652.94;4971128;28;19914;-82
2022/04/22 02:08:36;;;;;;;;;;;;;;;11.41;77.84;99647.50;4971023;28;21016;-82
2022/04/22 02:11:02;;;;;;;;;;;;;;;11.41;77.21;99648.34;4970421;28;20012;-82
2022/04/22 02:13:27;;;;;;;;;;;;;;;11.31;77.64;99659.13;4970880;28;19918;-82
2022/04/22 02:15:53;;;;;;;;;;;;;;;11.47;76.61;99652.66;4971396;28;20407;-82
2022/04/22 02:18:18;;;;;;;;;;;;;;;11.45;76.46;99641.25;4971021;28;19918;-81
2022/04/22 02:20:44;;;;;;;;;;;;;;;11.47;76.36;99632.38;4970613;28;19922;-82
2022/04/22 02:23:09;;;;;;;;;;;;;;;11.40;76.47;99630.78;4970897;28;19922;-82
2022/04/22 02:25:34;;;;;;;;;;;;;;;11.50;75.79;99623.53;4970556;28;19921;-81
2022/04/22 02:30:43;;;;;;;;;;;;;;;11.82;74.47;99622.03;4970624;28;19936;-81
2022/04/22 02:33:09;;;;;;;;;;;;;;;11.72;74.52;99626.63;4970431;28;20380;-82
2022/04/22 02:35:34;;;;;;;;;;;;;;;11.75;74.68;99615.97;4970515;28;19953;-83
2022/04/22 02:37:59;;;;;;;;;;;;;;;11.83;74.22;99626.38;4970636;28;19925;-82
2022/04/22 02:45:53;;;;;;;;;;;;;;;11.61;74.95;99626.84;4970947;28;19964;-81
2022/04/22 02:48:18;;;;;;;;;;;;;;;11.71;75.32;99627.53;4971763;28;19961;-81
2022/04/22 02:50:43;;;;;;;;;;;;;;;11.73;75.21;99617.78;4971808;28;19953;-81
2022/04/22 02:53:09;;;;;;;;;;;;;;;11.62;75.36;99614.50;4972297;28;20385;-81
2022/04/22 02:55:36;;;;;;;;;;;;;;;11.29;77.69;99615.16;4970203;28;19988;-82
2022/04/22 02:58:02;;;;;;;;;;;;;;;11.21;78.34;99606.47;4969911;28;19949;-83
2022/04/22 03:00:27;;;;;;;;;;;;;;;11.19;78.48;99602.16;4967242;28;19918;-82
2022/04/22 03:02:52;;;;;;;;;;;;;;;11.26;78.29;99609.94;4969549;28;19914;-83
2022/04/22 03:05:18;;;;;;;;;;;;;;;11.15;78.75;99616.31;4969969;28;19938;-82
2022/04/22 03:07:43;;;;;;;;;;;;;;;11.25;78.60;99612.59;4969993;28;19987;-82
2022/04/22 03:10:09;;;;;;;;;;;;;;;11.36;77.85;99618.53;4969365;28;19929;-82
2022/04/22 03:12:34;;;;;;;;;;;;;;;11.39;77.76;99617.63;4969683;28;19949;-82
2022/04/22 03:15:00;;;;;;;;;;;;;;;11.38;77.71;99608.81;4969810;28;19918;-82
2022/04/22 03:17:25;;;;;;;;;;;;;;;11.31;78.13;99612.47;4969509;28;20385;-82
2022/04/22 03:19:51;;;;;;;;;;;;;;;11.33;78.08;99617.72;4969671;28;20673;-83
2022/04/22 03:22:16;;;;;;;;;;;;;;;11.19;78.89;99624.13;4969581;28;20375;-83
2022/04/22 03:24:42;;;;;;;;;;;;;;;11.11;79.09;99629.56;4969319;28;20426;-82
2022/04/22 03:27:08;;;;;;;;;;;;;;;11.26;78.48;99630.16;4969243;28;20415;-84
2022/04/22 03:29:35;;;;;;;;;;;;;;;11.32;78.11;99629.19;4968962;28;19918;-83
2022/04/22 03:32:00;;;;;;;;;;;;;;;11.38;77.90;99634.34;4969246;28;19965;-83
2022/04/22 03:34:25;;;;;;;;;;;;;;;11.36;78.01;99636.16;4969440;28;20368;-84
2022/04/22 03:36:51;;;;;;;;;;;;;;;11.33;78.04;99633.56;4969430;28;19931;-84
2022/04/22 03:39:16;;;;;;;;;;;;;;;11.24;78.65;99631.97;4969084;28;19924;-83
2022/04/22 03:41:41;;;;;;;;;;;;;;;11.32;78.19;99640.59;4969039;28;20746;-83
2022/04/22 03:44:07;;;;;;;;;;;;;;;11.37;78.01;99645.81;4969091;28;20520;-84
2022/04/22 03:46:32;;;;;;;;;;;;;;;11.32;77.88;99634.47;4969043;28;19956;-85
2022/04/22 03:49:00;;;;;;;;;;;;;;;11.21;78.33;99624.97;4969219;28;19918;-83
2022/04/22 03:51:26;;;;;;;;;;;;;;;11.17;78.87;99625.94;4969213;28;20172;-84
2022/04/22 03:53:51;;;;;;;;;;;;;;;11.12;78.87;99630.41;4969241;28;20427;-84
2022/04/22 03:59:02;;;;;;;;;;;;;;;11.29;78.43;99630.09;4968921;28;19968;-83
2022/04/22 04:01:27;;;;;;;;;;;;;;;11.29;78.25;99630.09;4969370;28;19929;-83
2022/04/22 04:03:52;;;;;;;;;;;;;;;11.38;77.92;99629.06;4969009;28;19918;-84
2022/04/22 04:06:18;;;;;;;;;;;;;;;11.27;77.68;99626.63;4969278;28;20305;-84
2022/04/22 04:15:57;;;;;;;;;;;;;;;11.27;78.32;99616.06;4968907;28;19976;-84
2022/04/22 04:16:56;;;;;;;;;;;;;;;11.15;78.46;99625.09;4969471;28;19925;-85
2022/04/22 04:24:49;;;;;;;;;;;;;;;11.01;79.95;99632.38;4968752;28;19921;-85
2022/04/22 04:27:14;;;;;;;;;;;;;;;11.03;79.99;99643.78;4968676;28;19918;-85
2022/04/22 04:29:40;;;;;;;;;;;;;;;11.20;79.40;99649.66;4969001;28;19922;-85
2022/04/22 04:32:06;;;;;;;;;;;;;;;11.21;78.87;99645.22;4969123;28;19918;-85
2022/04/22 04:34:31;;;;;;;;;;;;;;;11.13;79.84;99644.50;4969125;28;19914;-86
2022/04/22 04:36:56;;;;;;;;;;;;;;;11.16;79.53;99658.50;4968531;28;19914;-85
2022/04/22 04:39:21;;;;;;;;;;;;;;;11.26;79.50;99653.94;4968853;28;19918;-85
2022/04/22 04:41:47;;;;;;;;;;;;;;;11.19;79.40;99641.75;4967377;28;20467;-85
2022/04/22 04:44:12;;;;;;;;;;;;;;;11.28;79.04;99628.38;4968449;28;19929;-86
2022/04/22 04:46:38;;;;;;;;;;;;;;;11.18;79.18;99619.75;4968606;28;19922;-85
2022/04/22 04:49:03;;;;;;;;;;;;;;;11.01;80.06;99621.84;4969046;28;19914;-83
2022/04/22 04:51:28;;;;;;;;;;;;;;;11.16;79.68;99641.81;4961092;28;19914;-85
2022/04/22 04:53:54;;;;;;;;;;;;;;;11.24;79.64;99642.53;4949336;28;19922;-85
2022/04/22 04:56:19;;;;;;;;;;;;;;;11.33;79.22;99650.28;4948850;28;19953;-85
2022/04/22 04:58:44;;;;;;;;;;;;;;;11.33;79.26;99652.06;4948525;28;19918;-85
2022/04/22 05:01:09;;;;;;;;;;;;;;;11.49;78.17;99663.19;4949112;28;20372;-85
2022/04/22 05:03:35;;;;;;;;;;;;;;;11.37;78.17;99651.09;4948989;28;19925;-84
2022/04/22 05:06:01;;;;;;;;;;;;;;;11.38;78.61;99644.91;4949295;28;20385;-85
2022/04/22 05:08:27;;;;;;;;;;;;;;;11.50;78.27;99652.59;4948860;28;19919;-85
2022/04/22 05:10:52;;;;;;;;;;;;;;;11.26;79.16;99660.09;4948460;28;19925;-84
2022/04/22 05:13:18;;;;;;;;;;;;;;;11.05;80.46;99657.84;4948950;28;19965;-85
2022/04/22 05:15:43;;;;;;;;;;;;;;;11.33;79.27;99649.41;4948975;28;19911;-84
2022/04/22 05:18:09;;;;;;;;;;;;;;;11.33;78.70;99654.69;4948516;28;19918;-84
2022/04/22 05:20:34;;;;;;;;;;;;;;;11.14;79.79;99655.03;4948651;28;20345;-84
2022/04/22 05:22:59;;;;;;;;;;;;;;;11.15;79.89;99650.63;4949239;28;19923;-84
2022/04/22 05:25:25;;;;;;;;;;;;;;;11.40;78.96;99662.47;4948747;28;19919;-85
2022/04/22 05:27:51;;;;;;;;;;;;;;;11.26;79.24;99668.03;4951516;28;19926;-85
2022/04/22 05:33:03;;;;;;;;;;;;;;;11.13;80.38;99681.47;4952148;29;19925;-85
2022/04/22 05:35:28;;;;;;;;;;;;;;;10.77;82.83;99692.63;4952395;28;19976;-84
2022/04/22 05:37:57;;;;;;;;;;;;;;;10.56;83.72;99692.03;4952591;28;19997;-84
2022/04/22 05:40:24;;;;;;;;;;;;;;;10.68;84.07;99698.91;4951993;28;20769;-85
2022/04/22 05:42:50;;;;;;;;;;;;;;;10.93;82.97;99694.09;4959124;28;19925;-85
2022/04/22 05:45:16;;;;;;;;;;;;;;;10.93;82.90;99698.50;4971334;28;19918;-84
2022/04/22 05:47:42;;;;;;;;;;;;;;;10.98;82.34;99686.09;4971499;28;19922;-85
2022/04/22 05:50:08;;;;;;;;;;;;;;;11.22;81.32;99691.88;4971390;28;19918;-85
2022/04/22 05:52:34;;;;;;;;;;;;;;;11.21;80.60;99693.63;4971214;28;20395;-86
2022/04/22 05:55:02;;;;;;;;;;;;;;;11.39;80.05;99705.63;4971326;28;19910;-84
2022/04/22 05:57:30;;;;;;;;;;;;;;;11.39;79.43;99707.41;4971051;28;19921;-85
2022/04/22 05:59:56;;;;;;;;;;;;;;;11.41;79.66;99703.81;4971003;28;19918;-86
2022/04/22 06:02:21;;;;;;;;;;;;;;;11.38;79.47;99695.97;4971272;28;20297;-84
2022/04/22 06:04:47;;;;;;;;;;;;;;;11.28;80.30;99674.13;4971014;28;19925;-84
2022/04/22 06:07:12;;;;;;;;;;;;;;;11.20;81.28;99686.63;4971253;28;19918;-86
2022/04/22 06:12:22;;;;;;;;;;;;;;;11.57;79.76;99690.31;4971985;28;19925;-85
2022/04/22 06:14:47;;;;;;;;;;;;;;;11.61;79.95;99690.25;4970737;28;19914;-85
2022/04/22 06:17:13;;;;;;;;;;;;;;;11.65;79.42;99691.94;4971386;28;19918;-84
2022/04/22 06:19:38;;;;;;;;;;;;;;;11.74;79.16;99687.34;4971077;28;19918;-84
2022/04/22 06:22:04;;;;;;;;;;;;;;;11.82;78.54;99691.59;4970934;28;19925;-85
2022/04/22 06:24:29;;;;;;;;;;;;;;;11.86;78.58;99694.19;4970886;28;20427;-86
2022/04/22 06:26:55;;;;;;;;;;;;;;;11.71;79.79;99695.34;4970838;28;19914;-85
2022/04/22 06:29:20;;;;;;;;;;;;;;;11.76;79.43;99686.44;4970917;28;19922;-83
2022/04/22 06:31:45;;;;;;;;;;;;;;;11.70;79.82;99685.69;4972583;28;19918;-84
2022/04/22 06:34:11;;;;;;;;;;;;;;;11.55;80.65;99685.06;4971546;28;20298;-84
2022/04/22 06:36:36;;;;;;;;;;;;;;;11.74;80.24;99679.44;4969988;28;20286;-85
2022/04/22 06:39:02;;;;;;;;;;;;;;;11.71;80.10;99682.13;4970963;28;19914;-85
2022/04/22 06:45:46;;;;;;;;;;;;;;;11.93;79.86;99650.91;4972437;28;20324;-84
2022/04/22 06:47:14;;;;;;;;;;;;;;;11.51;81.58;99637.63;4974639;28;19913;-85
2022/04/22 06:49:41;;;;;;;;;;;;;;;11.28;83.46;99634.53;4970801;28;20365;-84
2022/04/22 06:52:07;;;;;;;;;;;;;;;11.08;85.19;99626.97;4970977;28;19964;-85
2022/04/22 06:54:33;;;;;;;;;;;;;;;11.06;86.68;99617.31;4970763;28;19957;-84
2022/04/22 06:56:59;;;;;;;;;;;;;;;10.92;87.68;99612.28;4968834;28;20000;-84
2022/04/22 06:59:24;;;;;;;;;;;;;;;11.08;87.27;99607.63;4969825;28;19925;-83
2022/04/22 07:01:50;;;;;;;;;;;;;;;10.95;87.28;99604.31;4971938;28;20376;-84
2022/04/22 07:04:16;;;;;;;;;;;;;;;11.00;87.00;99602.50;4971133;28;19925;-83
2022/04/22 07:06:42;;;;;;;;;;;;;;;11.14;86.94;99596.97;4968533;28;20392;-83
2022/04/22 07:09:10;;;;;;;;;;;;;;;11.26;85.38;99594.09;4969983;28;19948;-84
2022/04/22 07:11:37;;;;;;;;;;;;;;;11.23;85.82;99599.44;4968382;28;19926;-82
2022/04/22 07:14:02;;;;;;;;;;;;;;;11.41;85.18;99592.03;4970155;28;19914;-83
2022/04/22 07:16:28;;;;;;;;;;;;;;;11.59;85.69;99572.31;4969878;28;20439;-83
2022/04/22 07:18:53;;;;;;;;;;;;;;;11.49;84.73;99571.59;4969519;28;19965;-83
2022/04/22 07:21:19;;;;;;;;;;;;;;;11.68;84.19;99579.16;4966467;28;21060;-82
2022/04/22 07:23:45;;;;;;;;;;;;;;;11.77;82.69;99594.81;4957931;28;19922;-82
2022/04/22 07:26:11;;;;;;;;;;;;;;;11.67;82.42;99595.94;4949999;28;19918;-82
2022/04/22 07:28:38;;;;;;;;;;;;;;;11.87;81.63;99591.06;4949093;28;19972;-81
2022/04/22 07:31:03;;;;;;;;;;;;;;;12.04;81.36;99596.00;4948863;28;19918;-81
2022/04/22 07:33:29;;;;;;;;;;;;;;;12.08;80.44;99587.13;4950123;28;20309;-81
2022/04/22 07:35:54;;;;;;;;;;;;;;;12.27;79.42;99579.63;4950289;28;19922;-82
2022/04/22 07:38:20;;;;;;;;;;;;;;;12.32;79.52;99579.50;4949743;28;20081;-82
2022/04/22 07:40:49;;;;;;;;;;;;;;;12.31;79.72;99561.88;4950122;28;19922;-81
2022/04/22 07:48:43;;;;;;;;;;;;;;;12.46;79.85;99556.22;4950225;29;20368;-82
2022/04/22 07:51:08;;;;;;;;;;;;;;;12.60;78.68;99545.28;4949628;28;19918;-82
2022/04/22 07:53:35;;;;;;;;;;;;;;;12.53;78.54;99549.03;4949780;28;19914;-81
2022/04/22 07:56:01;;;;;;;;;;;;;;;12.62;78.67;99551.44;4949360;28;19973;-81
2022/04/22 07:58:27;;;;;;;;;;;;;;;12.70;78.49;99556.53;4949770;28;19918;-82
2022/04/22 08:00:52;;;;;;;;;;;;;;;12.82;77.62;99550.91;4950328;28;20224;-80
2022/04/22 08:03:18;;;;;;;;;;;;;;;12.64;77.20;99548.75;4949995;28;19977;-81
2022/04/22 08:05:43;;;;;;;;;;;;;;;12.76;78.69;99547.53;4948477;29;19918;-82
2022/04/22 08:08:09;;;;;;;;;;;;;;;12.68;78.93;99545.09;4950405;28;19969;-79
2022/04/22 08:10:35;;;;;;;;;;;;;;;12.50;77.76;99549.09;4948647;29;19922;-82
2022/04/22 08:13:01;;;;;;;;;;;;;;;12.83;78.56;99541.19;4950537;28;20288;-81
2022/04/22 08:15:26;;;;;;;;;;;;;;;13.01;78.37;99553.94;4949745;28;19933;-81
2022/04/22 08:17:52;;;;;;;;;;;;;;;13.02;77.48;99547.72;4949657;28;19918;-81
2022/04/22 08:20:18;;;;;;;;;;;;;;;12.84;77.62;99549.09;4949427;28;19972;-81
2022/04/22 08:22:46;;;;;;;;;;;;;;;12.92;78.37;99546.22;4949305;28;19930;-83
2022/04/22 08:25:13;;;;;;;;;;;;;;;13.14;78.74;99533.25;4949599;28;20013;-82
2022/04/22 08:27:39;;;;;;;;;;;;;;;13.21;77.05;99524.25;4949349;28;20589;-82
2022/04/22 08:30:06;;;;;;;;;;;;;;;13.38;76.92;99530.88;4949633;28;19914;-82
2022/04/22 08:32:31;;;;;;;;;;;;;;;13.69;76.22;99529.97;4949739;28;19918;-84
2022/04/22 08:34:56;;;;;;;;;;;;;;;14.02;74.38;99530.69;4949759;28;19921;-84
2022/04/22 08:37:21;;;;;;;;;;;;;;;13.95;74.03;99537.97;4956571;28;19925;-82
2022/04/22 08:39:47;;;;;;;;;;;;;;;14.44;73.75;99522.25;4957622;28;19918;-81
2022/04/22 08:42:14;;;;;;;;;;;;;;;14.63;72.36;99500.44;4948994;28;19914;-81
2022/04/22 08:44:40;;;;;;;;;;;;;;;14.97;72.22;99508.06;4949277;29;20424;-85
2022/04/22 08:49:58;;;;;;;;;;;;;;;15.64;69.84;99509.09;4949198;29;19973;-83
2022/04/22 08:52:25;;;;;;;;;;;;;;;15.70;68.65;99498.22;4949598;28;20317;-83
2022/04/22 08:54:52;;;;;;;;;;;;;;;15.71;69.03;99486.69;4948814;28;19910;-81
2022/04/22 08:57:18;;;;;;;;;;;;;;;15.48;68.72;99484.06;4949271;28;19918;-82
2022/04/22 08:59:44;;;;;;;;;;;;;;;15.67;69.82;99487.72;4949087;29;19922;-83
2022/04/22 09:02:09;;;;;;;;;;;;;;;15.86;66.30;99501.19;4950782;28;19918;-83
2022/04/22 09:04:35;;;;;;;;;;;;;;;16.13;67.12;99487.72;4953028;28;19918;-82
2022/04/22 09:07:01;;;;;;;;;;;;;;;16.43;65.30;99490.88;4952529;28;19914;-83
2022/04/22 09:09:27;;;;;;;;;;;;;;;16.40;64.83;99480.34;4953112;28;19914;-83
2022/04/22 09:11:53;;;;;;;;;;;;;;;16.35;64.64;99481.50;4952677;28;19918;-82
2022/04/22 09:14:23;;;;;;;;;;;;;;;16.35;67.21;99486.81;4952653;28;20067;-82
2022/04/22 09:16:50;;;;;;;;;;;;;;;16.71;64.75;99488.81;4951417;29;20409;-82
2022/04/22 09:19:18;;;;;;;;;;;;;;;16.76;64.16;99476.16;4952949;28;19960;-82
2022/04/22 09:21:54;;;;;;;;;;;;;;;16.75;64.11;99474.44;4952039;28;19989;-82
2022/04/22 09:24:19;;;;;;;;;;;;;;;17.23;63.31;99464.34;4952827;28;20275;-82
2022/04/22 09:26:45;;;;;;;;;;;;;;;17.10;63.44;99475.56;4952249;28;20380;-83
2022/04/22 09:29:10;;;;;;;;;;;;;;;16.99;62.87;99464.50;4952468;28;19926;-82
2022/04/22 09:31:49;;;;;;;;;;;;;;;17.00;63.73;99452.94;4952974;28;19915;-82
2022/04/22 09:34:15;;;;;;;;;;;;;;;17.11;62.70;99460.44;4952236;28;19965;-83
2022/04/22 09:45:06;;;;;;;;;;;;;;;17.99;60.11;99449.16;4971812;28;20388;-82
2022/04/22 09:47:32;;;;;;;;;;;;;;;17.68;61.09;99450.63;4971853;28;19917;-81
2022/04/22 09:49:58;;;;;;;;;;;;;;;17.40;62.11;99445.75;4972048;28;19937;-81
2022/04/22 09:52:24;;;;;;;;;;;;;;;17.50;61.04;99431.06;4971771;28;20286;-82
2022/04/22 09:55:01;;;;;;;;;;;;;;;17.64;62.02;99429.53;4971614;28;19972;-82
2022/04/22 09:57:27;;;;;;;;;;;;;;;17.29;63.06;99406.28;4972305;28;19922;-84
2022/04/22 09:59:54;;;;;;;;;;;;;;;17.08;65.40;99410.81;4973400;28;19977;-81
2022/04/22 10:02:21;;;;;;;;;;;;;;;17.00;64.49;99404.97;4973358;28;19921;-82
2022/04/22 10:04:49;;;;;;;;;;;;;;;17.39;63.88;99403.19;4973061;28;19918;-83
2022/04/22 10:07:16;;;;;;;;;;;;;;;17.35;63.67;99411.31;4972365;28;19914;-82
2022/04/22 10:09:42;;;;;;;;;;;;;;;17.50;62.67;99403.53;4972982;28;19957;-82
2022/04/22 10:12:09;;;;;;;;;;;;;;;17.58;61.84;99401.38;4972891;28;19945;-80
2022/04/22 10:14:37;;;;;;;;;;;;;;;17.78;63.63;99386.16;4971842;28;20367;-82
2022/04/22 10:17:04;;;;;;;;;;;;;;;18.25;63.09;99393.63;4971162;28;20025;-82
2022/04/22 10:19:31;;;;;;;;;;;;;;;18.94;58.95;99383.81;4970706;28;19917;-81
2022/04/22 10:21:57;;;;;;;;;;;;;;;19.39;58.25;99379.53;4971278;28;19922;-82
2022/04/22 10:24:22;;;;;;;;;;;;;;;19.52;56.97;99360.94;4971059;28;19914;-81
2022/04/22 10:26:48;;;;;;;;;;;;;;;19.20;56.52;99352.06;4971168;28;19918;-80
2022/04/22 10:29:13;;;;;;;;;;;;;;;19.57;56.18;99336.59;4970958;28;19918;-81
2022/04/22 10:31:39;;;;;;;;;;;;;;;19.17;57.86;99329.06;4969468;28;19989;-81
2022/04/22 10:34:08;;;;;;;;;;;;;;;18.84;59.68;99323.75;4971284;28;19942;-81
2022/04/22 10:36:34;;;;;;;;;;;;;;;19.12;58.24;99328.44;4970641;28;20373;-82
2022/04/22 10:38:59;;;;;;;;;;;;;;;19.21;59.10;99319.91;4969400;28;19918;-84
2022/04/22 10:41:24;;;;;;;;;;;;;;;19.22;57.44;99324.31;4970607;28;19960;-83
2022/04/22 10:49:36;;;;;;;;;;;;;;;19.61;58.09;99306.06;4970528;28;20755;-84
2022/04/22 10:52:09;;;;;;;;;;;;;;;19.41;57.11;99307.22;4970546;28;19925;-83
2022/04/22 10:54:53;;;;;;;;;;;;;;;19.69;58.00;99295.75;4964519;28;19910;-83
2022/04/22 10:57:18;;;;;;;;;;;;;;;19.91;57.11;99291.84;4957938;28;19922;-85
2022/04/22 10:59:44;;;;;;;;;;;;;;;19.97;56.34;99289.69;4960635;28;20364;-84
2022/04/22 11:02:29;;;;;;;;;;;;;;;20.26;57.06;99278.13;4961873;28;20016;-85
2022/04/22 11:05:13;;;;;;;;;;;;;;;20.14;55.62;99269.03;4958855;28;19918;-86
2022/04/22 11:07:59;;;;;;;;;;;;;;;19.87;56.92;99263.56;4959754;28;19918;-86
2022/04/22 11:10:24;;;;;;;;;;;;;;;20.33;55.76;99245.53;4960857;28;20041;-85
2022/04/22 11:12:51;;;;;;;;;;;;;;;20.58;55.46;99244.84;4957902;28;20375;-84
2022/04/22 11:15:35;;;;;;;;;;;;;;;20.54;55.04;99243.31;4958065;28;19996;-84
2022/04/22 11:18:01;;;;;;;;;;;;;;;20.69;56.18;99214.69;4960327;28;20017;-85
2022/04/22 11:20:26;;;;;;;;;;;;;;;20.96;54.11;99226.41;4954826;28;20467;-84
2022/04/22 11:22:56;;;;;;;;;;;;;;;21.00;54.39;99223.44;4960038;28;19922;-85
2022/04/22 11:25:25;;;;;;;;;;;;;;;20.92;55.39;99207.00;4959927;28;20407;-84
2022/04/22 11:27:53;;;;;;;;;;;;;;;20.98;54.95;99197.69;4955587;28;20506;-88
2022/04/22 11:30:18;;;;;;;;;;;;;;;20.95;55.08;99198.75;4957421;28;19922;-84
2022/04/22 11:32:48;;;;;;;;;;;;;;;21.48;55.67;99188.06;4959209;28;19919;-84
2022/04/22 11:35:21;;;;;;;;;;;;;;;21.43;54.05;99177.66;4954725;28;20460;-84
2022/04/22 11:37:56;;;;;;;;;;;;;;;21.91;51.54;99173.53;4957536;28;19981;-84
2022/04/22 11:40:22;;;;;;;;;;;;;;;22.27;52.05;99169.19;4956424;28;19922;-85
2022/04/22 11:42:51;;;;;;;;;;;;;;;22.28;52.03;99152.13;4958459;28;19929;-84
2022/04/22 11:45:16;;;;;;;;;;;;;;;22.48;50.73;99142.63;4953599;28;19937;-83
2022/04/22 11:47:42;;;;;;;;;;;;;;;22.56;53.69;99140.25;4949706;28;19918;-84
2022/04/22 11:50:08;;;;;;;;;;;;;;;22.97;54.43;99144.38;4953431;28;19929;-84
2022/04/22 11:52:33;;;;;;;;;;;;;;;22.94;54.07;99141.91;4955865;28;20013;-83
2022/04/22 11:55:00;;;;;;;;;;;;;;;23.13;51.49;99119.03;4960876;28;20005;-84
2022/04/22 11:57:26;;;;;;;;;;;;;;;23.17;47.93;99110.63;4963201;28;20345;-84
2022/04/22 12:05:33;;;;;;;;;;;;;;;23.45;52.47;99107.63;4961222;28;19964;-83
2022/04/22 12:08:10;;;;;;;;;;;;;;;23.05;49.25;99098.94;4957552;28;19921;-84
2022/04/22 12:10:36;;;;;;;;;;;;;;;23.05;51.75;99088.16;4968459;28;20473;-84
2022/04/22 12:13:02;;;;;;;;;;;;;;;23.22;51.98;99080.69;4968426;28;20033;-84
2022/04/22 12:15:28;;;;;;;;;;;;;;;23.28;50.78;99080.22;4969047;28;20017;-83
2022/04/22 12:17:54;;;;;;;;;;;;;;;23.41;52.05;99069.34;4968649;28;20021;-83
2022/04/22 12:20:19;;;;;;;;;;;;;;;22.97;53.95;99054.75;4968662;28;19924;-84
2022/04/22 12:22:48;;;;;;;;;;;;;;;23.21;52.40;99060.13;4968585;28;19918;-83
2022/04/22 12:25:19;;;;;;;;;;;;;;;23.27;54.46;99045.34;4968228;28;19961;-83
2022/04/22 12:28:04;;;;;;;;;;;;;;;23.57;48.09;99039.38;4968648;28;20008;-84
2022/04/22 12:30:33;;;;;;;;;;;;;;;23.80;49.35;99045.59;4969015;28;19918;-83
2022/04/22 12:32:58;;;;;;;;;;;;;;;23.62;49.77;99037.19;4969057;28;19918;-82
2022/04/22 12:35:24;;;;;;;;;;;;;;;23.54;52.21;99036.91;4967828;28;19917;-83
2022/04/22 12:37:50;;;;;;;;;;;;;;;23.66;49.18;99022.47;4967733;28;19922;-84
2022/04/22 12:40:18;;;;;;;;;;;;;;;23.69;50.12;99019.53;4968448;28;19925;-84
2022/04/22 12:42:43;;;;;;;;;;;;;;;23.75;46.98;99026.28;4968702;28;19986;-87
2022/04/22 12:53:28;;;;;;;;;;;;;;;24.01;48.42;98996.44;4947702;28;19953;-84
2022/04/22 12:56:04;;;;;;;;;;;;;;;23.77;46.11;98995.56;4967815;28;19921;-84
2022/04/22 12:58:29;;;;;;;;;;;;;;;23.91;48.61;98990.91;4968473;28;20057;-85
2022/04/22 13:00:55;;;;;;;;;;;;;;;23.66;45.04;98978.56;4968211;28;20004;-85
2022/04/22 13:03:21;;;;;;;;;;;;;;;23.88;43.96;98975.88;4968339;28;20297;-85
2022/04/22 13:05:47;;;;;;;;;;;;;;;23.98;48.42;98975.97;4968666;28;19922;-85
2022/04/22 13:08:15;;;;;;;;;;;;;;;24.02;47.40;98969.38;4967870;28;19925;-85
2022/04/22 13:10:41;;;;;;;;;;;;;;;23.96;48.96;98972.56;4967850;28;20016;-85
2022/04/22 13:13:07;;;;;;;;;;;;;;;24.11;48.09;98954.25;4967647;28;19918;-85
2022/04/22 13:15:32;;;;;;;;;;;;;;;24.28;46.16;98956.41;4952745;28;19925;-85
2022/04/22 13:17:57;;;;;;;;;;;;;;;24.10;43.58;98960.66;4948899;28;19926;-84
2022/04/22 13:20:23;;;;;;;;;;;;;;;24.23;47.24;98949.69;4947157;29;19926;-85
2022/04/22 13:22:48;;;;;;;;;;;;;;;24.33;45.69;98947.94;4948893;28;19934;-85
2022/04/22 13:25:15;;;;;;;;;;;;;;;24.53;45.55;98945.41;4952770;28;19929;-84
2022/04/22 13:27:41;;;;;;;;;;;;;;;24.18;46.64;98946.53;4967927;28;19918;-85
2022/04/22 13:30:07;;;;;;;;;;;;;;;24.60;46.82;98935.84;4967999;28;19918;-86
2022/04/22 13:32:33;;;;;;;;;;;;;;;24.83;45.34;98928.47;4968472;28;19980;-87
2022/04/22 13:34:58;;;;;;;;;;;;;;;24.66;44.36;98922.69;4968806;28;20522;-86
2022/04/22 13:37:24;;;;;;;;;;;;;;;24.66;45.13;98924.53;4968449;28;19922;-86
2022/04/22 13:39:49;;;;;;;;;;;;;;;24.03;45.21;98916.34;4967187;28;19914;-84
2022/04/22 13:42:15;;;;;;;;;;;;;;;24.54;49.19;98922.84;4948981;28;19922;-84
2022/04/22 13:52:53;;;;;;;;;;;;;;;25.23;39.86;98905.25;4952712;29;20023;-83
2022/04/22 13:55:18;;;;;;;;;;;;;;;25.24;41.36;98918.63;4951714;28;20370;-83
2022/04/22 13:57:44;;;;;;;;;;;;;;;24.94;43.83;98914.06;4951076;28;19919;-83
2022/04/22 14:00:10;;;;;;;;;;;;;;;25.31;42.84;98905.44;4951869;28;19980;-83
2022/04/22 14:02:44;;;;;;;;;;;;;;;24.97;43.59;98897.59;4951229;28;19919;-83
2022/04/22 14:05:09;;;;;;;;;;;;;;;24.69;47.66;98910.78;4949810;28;20298;-83
2022/04/22 14:07:35;;;;;;;;;;;;;;;24.68;45.73;98900.97;4951841;28;19918;-83